Snydersburg, Pennsylvania
Current Conditions -  °F | °C
As of 7:53 AM on Sunday 21 Dec 2014 (Local Time) from KDUJ Reporting Station
Overcast Overcast  
Wind Chill: 19°   Ceiling: 1600
Heat Index: 25°   Visibility: 10mi
Dew Point: 21°   Wind: 5mph
Humidity: 85%   Direction: 310°NW
Pressure: 30.25"   Gusts: NA
Location:  41.33°N, 79.36°W
Report Text: KDUJ 211253Z AUTO 31004KT 10SM OVC016 M04/M06 A3025 RMK AO2 SLP268 T10391061
Loading
Personal Weather Stations






























Interactive Weather Map New forecast layout! Learn more

10-Day Weather Forecast

Advertisements
Track Severe Weather on mobile